sensor_id;sensor_type;location;lat;lon;timestamp;P1;durP1;ratioP1;P2;durP2;ratioP2
65755;SDS011;52489;47.502;18.940;2022-11-15T00:00:36;1.02;;;1.00;;
65755;SDS011;52489;47.502;18.940;2022-11-15T00:01:39;0.98;;;0.95;;
65755;SDS011;52489;47.502;18.940;2022-11-15T00:02:43;0.90;;;0.88;;
65755;SDS011;52489;47.502;18.940;2022-11-15T00:03:46;1.90;;;1.20;;
65755;SDS011;52489;47.502;18.940;2022-11-15T00:04:48;1.75;;;1.35;;
65755;SDS011;52489;47.502;18.940;2022-11-15T00:05:51;1.42;;;1.10;;
65755;SDS011;52489;47.502;18.940;2022-11-15T00:06:54;0.88;;;0.88;;
65755;SDS011;52489;47.502;18.940;2022-11-15T00:07:57;1.23;;;1.12;;
65755;SDS011;52489;47.502;18.940;2022-11-15T00:09:01;0.73;;;0.70;;
65755;SDS011;52489;47.502;18.940;2022-11-15T00:10:04;1.27;;;0.90;;
65755;SDS011;52489;47.502;18.940;2022-11-15T00:11:09;1.23;;;0.82;;
65755;SDS011;52489;47.502;18.940;2022-11-15T00:12:14;1.10;;;1.10;;
65755;SDS011;52489;47.502;18.940;2022-11-15T00:13:17;1.10;;;1.00;;
65755;SDS011;52489;47.502;18.940;2022-11-15T00:14:20;1.85;;;1.20;;
65755;SDS011;52489;47.502;18.940;2022-11-15T00:15:22;1.90;;;1.45;;
65755;SDS011;52489;47.502;18.940;2022-11-15T00:16:25;1.17;;;1.08;;
65755;SDS011;52489;47.502;18.940;2022-11-15T00:17:28;2.28;;;1.42;;
65755;SDS011;52489;47.502;18.940;2022-11-15T00:18:32;4.47;;;1.83;;
65755;SDS011;52489;47.502;18.940;2022-11-15T00:19:35;1.52;;;1.23;;
65755;SDS011;52489;47.502;18.940;2022-11-15T00:20:38;1.37;;;1.10;;
65755;SDS011;52489;47.502;18.940;2022-11-15T00:21:41;1.42;;;0.95;;
65755;SDS011;52489;47.502;18.940;2022-11-15T00:22:44;1.17;;;0.95;;
65755;SDS011;52489;47.502;18.940;2022-11-15T00:23:47;2.37;;;1.10;;
65755;SDS011;52489;47.502;18.940;2022-11-15T00:24:50;0.82;;;0.82;;
65755;SDS011;52489;47.502;18.940;2022-11-15T00:25:56;0.95;;;0.93;;
65755;SDS011;52489;47.502;18.940;2022-11-15T00:27:00;0.93;;;0.82;;
65755;SDS011;52489;47.502;18.940;2022-11-15T00:28:05;13.68;;;1.62;;
65755;SDS011;52489;47.502;18.940;2022-11-15T00:29:08;1.20;;;1.10;;
65755;SDS011;52489;47.502;18.940;2022-11-15T00:30:11;0.93;;;0.93;;
65755;SDS011;52489;47.502;18.940;2022-11-15T00:31:32;1.45;;;0.80;;
65755;SDS011;52489;47.502;18.940;2022-11-15T00:32:35;0.82;;;0.82;;
65755;SDS011;52489;47.502;18.940;2022-11-15T00:33:38;1.10;;;1.10;;
65755;SDS011;52489;47.502;18.940;2022-11-15T00:34:41;4.05;;;2.03;;
65755;SDS011;52489;47.502;18.940;2022-11-15T00:35:45;1.42;;;1.25;;
65755;SDS011;52489;47.502;18.940;2022-11-15T00:36:49;3.37;;;1.80;;
65755;SDS011;52489;47.502;18.940;2022-11-15T00:37:52;1.30;;;1.10;;
65755;SDS011;52489;47.502;18.940;2022-11-15T00:38:56;1.42;;;1.33;;
65755;SDS011;52489;47.502;18.940;2022-11-15T00:39:59;1.45;;;1.00;;
65755;SDS011;52489;47.502;18.940;2022-11-15T00:41:03;0.95;;;0.77;;
65755;SDS011;52489;47.502;18.940;2022-11-15T00:42:11;2.92;;;1.52;;
65755;SDS011;52489;47.502;18.940;2022-11-15T00:43:15;1.48;;;0.93;;
65755;SDS011;52489;47.502;18.940;2022-11-15T00:44:18;2.83;;;1.00;;
65755;SDS011;52489;47.502;18.940;2022-11-15T00:45:22;3.25;;;1.30;;
65755;SDS011;52489;47.502;18.940;2022-11-15T00:46:25;1.37;;;1.27;;
65755;SDS011;52489;47.502;18.940;2022-11-15T00:47:29;4.45;;;1.48;;
65755;SDS011;52489;47.502;18.940;2022-11-15T00:48:32;0.73;;;0.73;;
65755;SDS011;52489;47.502;18.940;2022-11-15T00:49:35;2.15;;;1.35;;
65755;SDS011;52489;47.502;18.940;2022-11-15T00:50:39;2.37;;;1.20;;
65755;SDS011;52489;47.502;18.940;2022-11-15T00:51:42;0.77;;;0.77;;
65755;SDS011;52489;47.502;18.940;2022-11-15T00:52:45;2.58;;;0.90;;
65755;SDS011;52489;47.502;18.940;2022-11-15T00:53:48;0.90;;;0.90;;
65755;SDS011;52489;47.502;18.940;2022-11-15T00:54:51;0.90;;;0.90;;
65755;SDS011;52489;47.502;18.940;2022-11-15T00:55:54;1.70;;;1.40;;
65755;SDS011;52489;47.502;18.940;2022-11-15T00:56:57;1.95;;;1.58;;
65755;SDS011;52489;47.502;18.940;2022-11-15T00:58:00;2.35;;;1.20;;
65755;SDS011;52489;47.502;18.940;2022-11-15T00:59:03;1.35;;;1.20;;
65755;SDS011;52489;47.502;18.940;2022-11-15T01:00:07;1.42;;;1.30;;
65755;SDS011;52489;47.502;18.940;2022-11-15T01:01:11;1.20;;;1.10;;
65755;SDS011;52489;47.502;18.940;2022-11-15T01:02:16;1.10;;;1.00;;
65755;SDS011;52489;47.502;18.940;2022-11-15T01:03:18;1.55;;;1.25;;
65755;SDS011;52489;47.502;18.940;2022-11-15T01:04:21;5.20;;;1.48;;
65755;SDS011;52489;47.502;18.940;2022-11-15T01:05:24;2.15;;;1.33;;
65755;SDS011;52489;47.502;18.940;2022-11-15T01:06:40;1.85;;;1.25;;
65755;SDS011;52489;47.502;18.940;2022-11-15T01:07:42;2.45;;;1.65;;
65755;SDS011;52489;47.502;18.940;2022-11-15T01:08:45;1.85;;;1.40;;
65755;SDS011;52489;47.502;18.940;2022-11-15T01:09:48;1.30;;;1.02;;
65755;SDS011;52489;47.502;18.940;2022-11-15T01:10:51;1.80;;;1.25;;
65755;SDS011;52489;47.502;18.940;2022-11-15T01:11:54;1.50;;;1.10;;
65755;SDS011;52489;47.502;18.940;2022-11-15T01:12:56;1.30;;;1.20;;
65755;SDS011;52489;47.502;18.940;2022-11-15T01:13:59;2.97;;;1.83;;
65755;SDS011;52489;47.502;18.940;2022-11-15T01:15:02;1.08;;;1.02;;
65755;SDS011;52489;47.502;18.940;2022-11-15T01:16:07;1.40;;;1.30;;
65755;SDS011;52489;47.502;18.940;2022-11-15T01:17:15;1.33;;;1.12;;
65755;SDS011;52489;47.502;18.940;2022-11-15T01:18:20;2.17;;;1.50;;
65755;SDS011;52489;47.502;18.940;2022-11-15T01:19:23;1.30;;;1.20;;
65755;SDS011;52489;47.502;18.940;2022-11-15T01:20:26;1.20;;;1.20;;
65755;SDS011;52489;47.502;18.940;2022-11-15T01:21:28;2.35;;;1.50;;
65755;SDS011;52489;47.502;18.940;2022-11-15T01:22:31;0.90;;;0.90;;
65755;SDS011;52489;47.502;18.940;2022-11-15T01:23:34;1.80;;;1.25;;
65755;SDS011;52489;47.502;18.940;2022-11-15T01:24:37;1.48;;;1.37;;
65755;SDS011;52489;47.502;18.940;2022-11-15T01:25:39;2.72;;;1.30;;
65755;SDS011;52489;47.502;18.940;2022-11-15T01:26:42;3.25;;;1.10;;
65755;SDS011;52489;47.502;18.940;2022-11-15T01:27:45;1.37;;;1.00;;
65755;SDS011;52489;47.502;18.940;2022-11-15T01:28:50;1.83;;;1.15;;
65755;SDS011;52489;47.502;18.940;2022-11-15T01:29:53;5.03;;;2.33;;
65755;SDS011;52489;47.502;18.940;2022-11-15T01:30:57;1.25;;;1.15;;
65755;SDS011;52489;47.502;18.940;2022-11-15T01:32:03;2.80;;;1.70;;
65755;SDS011;52489;47.502;18.940;2022-11-15T01:33:06;1.58;;;1.12;;
65755;SDS011;52489;47.502;18.940;2022-11-15T01:34:09;1.60;;;1.10;;
65755;SDS011;52489;47.502;18.940;2022-11-15T01:35:12;2.08;;;1.25;;
65755;SDS011;52489;47.502;18.940;2022-11-15T01:36:16;1.73;;;1.48;;
65755;SDS011;52489;47.502;18.940;2022-11-15T01:37:20;1.10;;;1.10;;
65755;SDS011;52489;47.502;18.940;2022-11-15T01:38:23;1.40;;;1.25;;
65755;SDS011;52489;47.502;18.940;2022-11-15T01:39:26;1.62;;;1.17;;
65755;SDS011;52489;47.502;18.940;2022-11-15T01:40:29;1.12;;;1.00;;
65755;SDS011;52489;47.502;18.940;2022-11-15T01:41:32;3.03;;;1.62;;
65755;SDS011;52489;47.502;18.940;2022-11-15T01:42:35;1.62;;;1.00;;
65755;SDS011;52489;47.502;18.940;2022-11-15T01:43:39;3.12;;;1.65;;
65755;SDS011;52489;47.502;18.940;2022-11-15T01:44:51;1.98;;;1.65;;
65755;SDS011;52489;47.502;18.940;2022-11-15T01:46:06;0.98;;;0.95;;
65755;SDS011;52489;47.502;18.940;2022-11-15T01:47:41;1.48;;;1.17;;
65755;SDS011;52489;47.502;18.940;2022-11-15T01:48:49;1.10;;;1.00;;
65755;SDS011;52489;47.502;18.940;2022-11-15T01:49:56;1.90;;;1.33;;
65755;SDS011;52489;47.502;18.940;2022-11-15T01:50:59;1.90;;;1.73;;
65755;SDS011;52489;47.502;18.940;2022-11-15T01:52:07;3.10;;;1.62;;
65755;SDS011;52489;47.502;18.940;2022-11-15T01:53:13;3.72;;;2.12;;
65755;SDS011;52489;47.502;18.940;2022-11-15T01:54:18;2.70;;;1.90;;
65755;SDS011;52489;47.502;18.940;2022-11-15T01:55:24;2.22;;;1.83;;
65755;SDS011;52489;47.502;18.940;2022-11-15T01:56:30;1.42;;;1.33;;
65755;SDS011;52489;47.502;18.940;2022-11-15T01:57:35;2.60;;;1.58;;
65755;SDS011;52489;47.502;18.940;2022-11-15T01:58:38;2.92;;;1.35;;
65755;SDS011;52489;47.502;18.940;2022-11-15T01:59:43;1.73;;;1.40;;
65755;SDS011;52489;47.502;18.940;2022-11-15T02:00:48;3.08;;;1.33;;
65755;SDS011;52489;47.502;18.940;2022-11-15T02:01:52;1.23;;;1.12;;
65755;SDS011;52489;47.502;18.940;2022-11-15T02:02:55;1.23;;;1.15;;
65755;SDS011;52489;47.502;18.940;2022-11-15T02:04:02;2.25;;;1.42;;
65755;SDS011;52489;47.502;18.940;2022-11-15T02:05:11;2.42;;;1.50;;
65755;SDS011;52489;47.502;18.940;2022-11-15T02:06:14;1.90;;;1.65;;
65755;SDS011;52489;47.502;18.940;2022-11-15T02:07:17;1.10;;;1.10;;
65755;SDS011;52489;47.502;18.940;2022-11-15T02:08:26;1.73;;;1.25;;
65755;SDS011;52489;47.502;18.940;2022-11-15T02:09:29;0.93;;;0.90;;
65755;SDS011;52489;47.502;18.940;2022-11-15T02:10:32;1.67;;;1.37;;
65755;SDS011;52489;47.502;18.940;2022-11-15T02:11:35;1.40;;;1.30;;
65755;SDS011;52489;47.502;18.940;2022-11-15T02:12:38;1.87;;;1.35;;
65755;SDS011;52489;47.502;18.940;2022-11-15T02:13:42;1.40;;;1.05;;
65755;SDS011;52489;47.502;18.940;2022-11-15T02:14:47;1.02;;;1.02;;
65755;SDS011;52489;47.502;18.940;2022-11-15T02:16:07;1.27;;;1.10;;
65755;SDS011;52489;47.502;18.940;2022-11-15T02:17:46;3.25;;;0.88;;
65755;SDS011;52489;47.502;18.940;2022-11-15T02:23:31;1.50;;;1.08;;
65755;SDS011;52489;47.502;18.940;2022-11-15T02:26:30;0.70;;;0.70;;
65755;SDS011;52489;47.502;18.940;2022-11-15T02:28:04;0.80;;;0.80;;
65755;SDS011;52489;47.502;18.940;2022-11-15T02:29:11;1.00;;;0.82;;
65755;SDS011;52489;47.502;18.940;2022-11-15T02:30:27;2.47;;;1.17;;
65755;SDS011;52489;47.502;18.940;2022-11-15T02:37:39;2.20;;;1.02;;
65755;SDS011;52489;47.502;18.940;2022-11-15T02:41:09;1.08;;;1.02;;
65755;SDS011;52489;47.502;18.940;2022-11-15T02:42:32;1.02;;;0.98;;
65755;SDS011;52489;47.502;18.940;2022-11-15T02:44:01;3.35;;;1.10;;
65755;SDS011;52489;47.502;18.940;2022-11-15T02:45:27;1.30;;;1.20;;
65755;SDS011;52489;47.502;18.940;2022-11-15T02:46:41;1.48;;;1.02;;
65755;SDS011;52489;47.502;18.940;2022-11-15T02:48:15;1.60;;;1.50;;
65755;SDS011;52489;47.502;18.940;2022-11-15T02:49:20;1.50;;;1.37;;
65755;SDS011;52489;47.502;18.940;2022-11-15T02:50:26;1.98;;;0.88;;
65755;SDS011;52489;47.502;18.940;2022-11-15T02:51:32;1.62;;;1.40;;
65755;SDS011;52489;47.502;18.940;2022-11-15T02:52:35;1.00;;;1.00;;
65755;SDS011;52489;47.502;18.940;2022-11-15T02:53:38;0.90;;;0.90;;
65755;SDS011;52489;47.502;18.940;2022-11-15T02:54:41;1.10;;;1.00;;
65755;SDS011;52489;47.502;18.940;2022-11-15T02:55:44;1.10;;;1.00;;
65755;SDS011;52489;47.502;18.940;2022-11-15T02:56:54;1.20;;;1.12;;
65755;SDS011;52489;47.502;18.940;2022-11-15T03:06:46;1.98;;;1.62;;
65755;SDS011;52489;47.502;18.940;2022-11-15T03:11:44;1.48;;;1.05;;
65755;SDS011;52489;47.502;18.940;2022-11-15T03:12:55;2.20;;;1.15;;
65755;SDS011;52489;47.502;18.940;2022-11-15T03:14:11;0.85;;;0.85;;
65755;SDS011;52489;47.502;18.940;2022-11-15T03:15:37;1.50;;;1.27;;
65755;SDS011;52489;47.502;18.940;2022-11-15T03:16:55;2.15;;;1.48;;
65755;SDS011;52489;47.502;18.940;2022-11-15T03:18:21;1.35;;;1.20;;
65755;SDS011;52489;47.502;18.940;2022-11-15T03:19:42;2.28;;;1.33;;
65755;SDS011;52489;47.502;18.940;2022-11-15T03:20:48;1.20;;;1.17;;
65755;SDS011;52489;47.502;18.940;2022-11-15T03:21:52;3.03;;;1.80;;
65755;SDS011;52489;47.502;18.940;2022-11-15T03:23:00;3.72;;;1.40;;
65755;SDS011;52489;47.502;18.940;2022-11-15T03:24:08;2.75;;;1.23;;
65755;SDS011;52489;47.502;18.940;2022-11-15T03:25:12;1.70;;;1.58;;
65755;SDS011;52489;47.502;18.940;2022-11-15T03:26:20;1.62;;;1.02;;
65755;SDS011;52489;47.502;18.940;2022-11-15T03:27:27;1.37;;;1.17;;
65755;SDS011;52489;47.502;18.940;2022-11-15T03:28:37;2.22;;;0.93;;
65755;SDS011;52489;47.502;18.940;2022-11-15T03:29:44;1.90;;;1.20;;
65755;SDS011;52489;47.502;18.940;2022-11-15T03:30:52;2.20;;;1.95;;
65755;SDS011;52489;47.502;18.940;2022-11-15T03:31:58;1.33;;;1.08;;
65755;SDS011;52489;47.502;18.940;2022-11-15T03:33:05;2.00;;;1.80;;
65755;SDS011;52489;47.502;18.940;2022-11-15T03:34:11;2.55;;;1.42;;
65755;SDS011;52489;47.502;18.940;2022-11-15T03:35:27;1.30;;;1.20;;
65755;SDS011;52489;47.502;18.940;2022-11-15T03:36:33;1.17;;;1.10;;
65755;SDS011;52489;47.502;18.940;2022-11-15T03:37:40;1.67;;;1.58;;
65755;SDS011;52489;47.502;18.940;2022-11-15T03:38:56;3.37;;;2.30;;
65755;SDS011;52489;47.502;18.940;2022-11-15T03:40:04;2.87;;;1.25;;
65755;SDS011;52489;47.502;18.940;2022-11-15T03:41:14;1.58;;;1.23;;
65755;SDS011;52489;47.502;18.940;2022-11-15T03:42:27;2.78;;;1.37;;
65755;SDS011;52489;47.502;18.940;2022-11-15T03:45:27;2.08;;;1.75;;
65755;SDS011;52489;47.502;18.940;2022-11-15T03:46:49;1.20;;;1.10;;
65755;SDS011;52489;47.502;18.940;2022-11-15T03:48:08;3.45;;;1.90;;
65755;SDS011;52489;47.502;18.940;2022-11-15T03:49:17;2.30;;;1.52;;
65755;SDS011;52489;47.502;18.940;2022-11-15T03:50:25;2.20;;;1.40;;
65755;SDS011;52489;47.502;18.940;2022-11-15T03:51:28;1.90;;;1.42;;
65755;SDS011;52489;47.502;18.940;2022-11-15T03:52:32;1.30;;;1.20;;
65755;SDS011;52489;47.502;18.940;2022-11-15T03:53:36;1.83;;;1.30;;
65755;SDS011;52489;47.502;18.940;2022-11-15T03:54:55;1.27;;;1.17;;
65755;SDS011;52489;47.502;18.940;2022-11-15T03:55:58;1.65;;;1.33;;
65755;SDS011;52489;47.502;18.940;2022-11-15T03:57:01;2.75;;;1.52;;
65755;SDS011;52489;47.502;18.940;2022-11-15T03:58:04;2.92;;;2.08;;
65755;SDS011;52489;47.502;18.940;2022-11-15T03:59:07;2.87;;;1.98;;
65755;SDS011;52489;47.502;18.940;2022-11-15T04:00:10;2.75;;;1.75;;
65755;SDS011;52489;47.502;18.940;2022-11-15T04:01:13;2.45;;;2.15;;
65755;SDS011;52489;47.502;18.940;2022-11-15T04:02:16;2.25;;;1.70;;
65755;SDS011;52489;47.502;18.940;2022-11-15T04:03:19;1.62;;;1.52;;
65755;SDS011;52489;47.502;18.940;2022-11-15T04:04:22;2.20;;;1.60;;
65755;SDS011;52489;47.502;18.940;2022-11-15T04:05:24;5.70;;;1.50;;
65755;SDS011;52489;47.502;18.940;2022-11-15T04:06:27;1.40;;;1.30;;
65755;SDS011;52489;47.502;18.940;2022-11-15T04:07:30;1.50;;;1.40;;
65755;SDS011;52489;47.502;18.940;2022-11-15T04:08:33;4.22;;;2.00;;
65755;SDS011;52489;47.502;18.940;2022-11-15T04:09:36;6.28;;;1.98;;
65755;SDS011;52489;47.502;18.940;2022-11-15T04:10:59;1.85;;;1.50;;
65755;SDS011;52489;47.502;18.940;2022-11-15T04:12:03;2.35;;;1.42;;
65755;SDS011;52489;47.502;18.940;2022-11-15T04:13:06;3.72;;;1.70;;
65755;SDS011;52489;47.502;18.940;2022-11-15T04:14:09;2.33;;;1.95;;
65755;SDS011;52489;47.502;18.940;2022-11-15T04:15:13;1.98;;;1.65;;
65755;SDS011;52489;47.502;18.940;2022-11-15T04:16:17;2.37;;;1.80;;
65755;SDS011;52489;47.502;18.940;2022-11-15T04:17:20;4.22;;;1.30;;
65755;SDS011;52489;47.502;18.940;2022-11-15T04:18:23;2.67;;;1.30;;
65755;SDS011;52489;47.502;18.940;2022-11-15T04:19:26;1.48;;;1.12;;
65755;SDS011;52489;47.502;18.940;2022-11-15T04:20:48;2.10;;;1.55;;
65755;SDS011;52489;47.502;18.940;2022-11-15T04:22:09;2.33;;;1.70;;
65755;SDS011;52489;47.502;18.940;2022-11-15T04:23:30;2.22;;;1.33;;
65755;SDS011;52489;47.502;18.940;2022-11-15T04:24:51;1.37;;;1.27;;
65755;SDS011;52489;47.502;18.940;2022-11-15T04:25:55;1.85;;;1.45;;
65755;SDS011;52489;47.502;18.940;2022-11-15T04:26:58;1.00;;;0.98;;
65755;SDS011;52489;47.502;18.940;2022-11-15T04:28:02;2.87;;;1.30;;
65755;SDS011;52489;47.502;18.940;2022-11-15T04:29:05;1.35;;;1.23;;
65755;SDS011;52489;47.502;18.940;2022-11-15T04:30:26;1.52;;;1.40;;
65755;SDS011;52489;47.502;18.940;2022-11-15T04:31:29;1.98;;;1.70;;
65755;SDS011;52489;47.502;18.940;2022-11-15T04:32:32;2.67;;;2.10;;
65755;SDS011;52489;47.502;18.940;2022-11-15T04:33:34;2.25;;;1.77;;
65755;SDS011;52489;47.502;18.940;2022-11-15T04:34:37;3.90;;;2.00;;
65755;SDS011;52489;47.502;18.940;2022-11-15T04:35:41;8.98;;;2.33;;
65755;SDS011;52489;47.502;18.940;2022-11-15T04:36:45;1.27;;;1.17;;
65755;SDS011;52489;47.502;18.940;2022-11-15T04:38:07;1.60;;;1.27;;
65755;SDS011;52489;47.502;18.940;2022-11-15T04:39:11;2.03;;;1.50;;
65755;SDS011;52489;47.502;18.940;2022-11-15T04:40:14;2.00;;;1.87;;
65755;SDS011;52489;47.502;18.940;2022-11-15T04:41:17;1.90;;;1.67;;
65755;SDS011;52489;47.502;18.940;2022-11-15T04:42:19;2.35;;;1.92;;
65755;SDS011;52489;47.502;18.940;2022-11-15T04:43:22;2.05;;;1.45;;
65755;SDS011;52489;47.502;18.940;2022-11-15T04:44:25;2.17;;;1.10;;
65755;SDS011;52489;47.502;18.940;2022-11-15T04:45:27;1.90;;;1.00;;
65755;SDS011;52489;47.502;18.940;2022-11-15T04:46:30;2.83;;;1.85;;
65755;SDS011;52489;47.502;18.940;2022-11-15T04:47:34;1.27;;;1.25;;
65755;SDS011;52489;47.502;18.940;2022-11-15T04:48:37;1.70;;;1.60;;
65755;SDS011;52489;47.502;18.940;2022-11-15T04:49:40;2.10;;;1.52;;
65755;SDS011;52489;47.502;18.940;2022-11-15T04:50:43;2.60;;;1.87;;
65755;SDS011;52489;47.502;18.940;2022-11-15T04:51:46;1.50;;;1.40;;
65755;SDS011;52489;47.502;18.940;2022-11-15T04:52:50;2.03;;;1.50;;
65755;SDS011;52489;47.502;18.940;2022-11-15T04:53:54;3.97;;;1.67;;
65755;SDS011;52489;47.502;18.940;2022-11-15T04:54:57;7.22;;;1.92;;
65755;SDS011;52489;47.502;18.940;2022-11-15T04:56:06;1.58;;;1.42;;
65755;SDS011;52489;47.502;18.940;2022-11-15T04:57:09;2.15;;;1.77;;
65755;SDS011;52489;47.502;18.940;2022-11-15T04:58:12;4.95;;;2.10;;
65755;SDS011;52489;47.502;18.940;2022-11-15T04:59:19;1.75;;;1.30;;
65755;SDS011;52489;47.502;18.940;2022-11-15T05:00:21;1.85;;;1.27;;
65755;SDS011;52489;47.502;18.940;2022-11-15T05:01:24;1.65;;;1.55;;
65755;SDS011;52489;47.502;18.940;2022-11-15T05:02:26;2.30;;;1.40;;
65755;SDS011;52489;47.502;18.940;2022-11-15T05:03:49;1.67;;;1.37;;
65755;SDS011;52489;47.502;18.940;2022-11-15T05:05:11;0.98;;;0.98;;
65755;SDS011;52489;47.502;18.940;2022-11-15T05:06:13;2.72;;;1.40;;
65755;SDS011;52489;47.502;18.940;2022-11-15T05:07:16;2.70;;;1.92;;
65755;SDS011;52489;47.502;18.940;2022-11-15T05:08:19;1.75;;;1.65;;
65755;SDS011;52489;47.502;18.940;2022-11-15T05:09:21;5.65;;;1.58;;
65755;SDS011;52489;47.502;18.940;2022-11-15T05:10:24;3.12;;;1.27;;
65755;SDS011;52489;47.502;18.940;2022-11-15T05:11:26;2.58;;;1.58;;
65755;SDS011;52489;47.502;18.940;2022-11-15T05:12:29;3.03;;;1.90;;
65755;SDS011;52489;47.502;18.940;2022-11-15T05:13:32;3.47;;;1.85;;
65755;SDS011;52489;47.502;18.940;2022-11-15T05:14:35;2.95;;;2.00;;
65755;SDS011;52489;47.502;18.940;2022-11-15T05:15:38;2.37;;;1.92;;
65755;SDS011;52489;47.502;18.940;2022-11-15T05:16:40;2.08;;;1.40;;
65755;SDS011;52489;47.502;18.940;2022-11-15T05:17:43;2.60;;;1.98;;
65755;SDS011;52489;47.502;18.940;2022-11-15T05:18:51;4.07;;;1.92;;
65755;SDS011;52489;47.502;18.940;2022-11-15T05:19:55;3.78;;;1.50;;
65755;SDS011;52489;47.502;18.940;2022-11-15T05:21:04;1.73;;;1.40;;
65755;SDS011;52489;47.502;18.940;2022-11-15T05:23:11;1.90;;;1.73;;
65755;SDS011;52489;47.502;18.940;2022-11-15T05:24:14;2.33;;;1.65;;
65755;SDS011;52489;47.502;18.940;2022-11-15T05:25:17;3.53;;;1.90;;
65755;SDS011;52489;47.502;18.940;2022-11-15T05:26:20;3.20;;;1.87;;
65755;SDS011;52489;47.502;18.940;2022-11-15T05:27:23;1.30;;;1.20;;
65755;SDS011;52489;47.502;18.940;2022-11-15T05:28:26;3.17;;;2.10;;
65755;SDS011;52489;47.502;18.940;2022-11-15T05:29:28;3.17;;;2.40;;
65755;SDS011;52489;47.502;18.940;2022-11-15T05:30:32;2.25;;;1.70;;
65755;SDS011;52489;47.502;18.940;2022-11-15T05:31:35;2.47;;;1.60;;
65755;SDS011;52489;47.502;18.940;2022-11-15T05:32:44;1.60;;;1.50;;
65755;SDS011;52489;47.502;18.940;2022-11-15T05:33:46;3.22;;;1.62;;
65755;SDS011;52489;47.502;18.940;2022-11-15T05:34:53;1.65;;;1.45;;
65755;SDS011;52489;47.502;18.940;2022-11-15T05:36:01;1.35;;;1.25;;
65755;SDS011;52489;47.502;18.940;2022-11-15T05:37:24;4.45;;;1.87;;
65755;SDS011;52489;47.502;18.940;2022-11-15T05:38:28;2.45;;;2.25;;
65755;SDS011;52489;47.502;18.940;2022-11-15T05:39:31;3.35;;;1.83;;
65755;SDS011;52489;47.502;18.940;2022-11-15T05:40:33;2.72;;;1.80;;
65755;SDS011;52489;47.502;18.940;2022-11-15T05:41:37;2.40;;;1.83;;
65755;SDS011;52489;47.502;18.940;2022-11-15T05:42:44;2.45;;;1.55;;
65755;SDS011;52489;47.502;18.940;2022-11-15T05:43:47;2.70;;;1.55;;
65755;SDS011;52489;47.502;18.940;2022-11-15T05:44:52;2.37;;;1.80;;
65755;SDS011;52489;47.502;18.940;2022-11-15T05:45:55;2.10;;;1.85;;
65755;SDS011;52489;47.502;18.940;2022-11-15T05:46:59;2.47;;;1.80;;
65755;SDS011;52489;47.502;18.940;2022-11-15T05:48:04;2.33;;;1.45;;
65755;SDS011;52489;47.502;18.940;2022-11-15T05:49:11;3.17;;;1.67;;
65755;SDS011;52489;47.502;18.940;2022-11-15T05:50:17;2.78;;;1.62;;
65755;SDS011;52489;47.502;18.940;2022-11-15T05:51:20;2.95;;;1.67;;
65755;SDS011;52489;47.502;18.940;2022-11-15T05:52:25;4.62;;;2.25;;
65755;SDS011;52489;47.502;18.940;2022-11-15T05:53:31;2.42;;;2.08;;
65755;SDS011;52489;47.502;18.940;2022-11-15T05:54:35;3.97;;;2.50;;
65755;SDS011;52489;47.502;18.940;2022-11-15T05:55:39;3.20;;;2.65;;
65755;SDS011;52489;47.502;18.940;2022-11-15T05:56:43;3.97;;;2.45;;
65755;SDS011;52489;47.502;18.940;2022-11-15T05:57:46;4.35;;;3.28;;
65755;SDS011;52489;47.502;18.940;2022-11-15T05:58:49;4.80;;;3.20;;
65755;SDS011;52489;47.502;18.940;2022-11-15T06:00:01;5.70;;;3.22;;
65755;SDS011;52489;47.502;18.940;2022-11-15T06:01:05;4.62;;;2.70;;
65755;SDS011;52489;47.502;18.940;2022-11-15T06:02:08;7.75;;;3.42;;
65755;SDS011;52489;47.502;18.940;2022-11-15T06:03:12;5.55;;;3.45;;
65755;SDS011;52489;47.502;18.940;2022-11-15T06:04:16;11.68;;;3.80;;
65755;SDS011;52489;47.502;18.940;2022-11-15T06:05:18;5.25;;;3.28;;
65755;SDS011;52489;47.502;18.940;2022-11-15T06:06:21;5.82;;;3.45;;
65755;SDS011;52489;47.502;18.940;2022-11-15T06:07:24;7.95;;;4.32;;
65755;SDS011;52489;47.502;18.940;2022-11-15T06:08:28;6.62;;;3.28;;
65755;SDS011;52489;47.502;18.940;2022-11-15T06:09:30;5.22;;;3.30;;
65755;SDS011;52489;47.502;18.940;2022-11-15T06:10:33;5.35;;;3.20;;
65755;SDS011;52489;47.502;18.940;2022-11-15T06:11:35;9.73;;;3.17;;
65755;SDS011;52489;47.502;18.940;2022-11-15T06:12:38;6.65;;;3.47;;
65755;SDS011;52489;47.502;18.940;2022-11-15T06:13:41;7.82;;;2.83;;
65755;SDS011;52489;47.502;18.940;2022-11-15T06:14:43;8.60;;;4.05;;
65755;SDS011;52489;47.502;18.940;2022-11-15T06:15:46;5.00;;;3.35;;
65755;SDS011;52489;47.502;18.940;2022-11-15T06:16:49;8.15;;;4.50;;
65755;SDS011;52489;47.502;18.940;2022-11-15T06:17:51;8.45;;;4.65;;
65755;SDS011;52489;47.502;18.940;2022-11-15T06:18:54;8.02;;;4.12;;
65755;SDS011;52489;47.502;18.940;2022-11-15T06:19:57;10.20;;;3.80;;
65755;SDS011;52489;47.502;18.940;2022-11-15T06:21:00;7.18;;;3.42;;
65755;SDS011;52489;47.502;18.940;2022-11-15T06:22:03;7.82;;;4.32;;
65755;SDS011;52489;47.502;18.940;2022-11-15T06:23:06;6.82;;;3.75;;
65755;SDS011;52489;47.502;18.940;2022-11-15T06:24:09;8.90;;;4.28;;
65755;SDS011;52489;47.502;18.940;2022-11-15T06:25:12;4.65;;;3.28;;
65755;SDS011;52489;47.502;18.940;2022-11-15T06:26:15;4.97;;;2.87;;
65755;SDS011;52489;47.502;18.940;2022-11-15T06:27:17;5.62;;;2.97;;
65755;SDS011;52489;47.502;18.940;2022-11-15T06:28:21;6.35;;;3.83;;
65755;SDS011;52489;47.502;18.940;2022-11-15T06:29:24;6.25;;;2.97;;
65755;SDS011;52489;47.502;18.940;2022-11-15T06:30:27;8.02;;;4.00;;
65755;SDS011;52489;47.502;18.940;2022-11-15T06:31:30;7.95;;;3.85;;
65755;SDS011;52489;47.502;18.940;2022-11-15T06:32:33;8.63;;;5.18;;
65755;SDS011;52489;47.502;18.940;2022-11-15T06:33:35;6.62;;;3.53;;
65755;SDS011;52489;47.502;18.940;2022-11-15T06:34:38;9.18;;;4.03;;
65755;SDS011;52489;47.502;18.940;2022-11-15T06:35:41;8.05;;;3.37;;
65755;SDS011;52489;47.502;18.940;2022-11-15T06:36:43;7.18;;;4.03;;
65755;SDS011;52489;47.502;18.940;2022-11-15T06:37:47;6.32;;;3.72;;
65755;SDS011;52489;47.502;18.940;2022-11-15T06:38:51;5.40;;;3.33;;
65755;SDS011;52489;47.502;18.940;2022-11-15T06:39:53;9.07;;;3.60;;
65755;SDS011;52489;47.502;18.940;2022-11-15T06:41:03;5.75;;;3.10;;
65755;SDS011;52489;47.502;18.940;2022-11-15T06:42:08;3.83;;;2.25;;
65755;SDS011;52489;47.502;18.940;2022-11-15T06:43:10;5.30;;;3.03;;
65755;SDS011;52489;47.502;18.940;2022-11-15T06:44:13;5.40;;;2.70;;
65755;SDS011;52489;47.502;18.940;2022-11-15T06:45:16;4.18;;;2.70;;
65755;SDS011;52489;47.502;18.940;2022-11-15T06:46:19;6.37;;;3.95;;
65755;SDS011;52489;47.502;18.940;2022-11-15T06:47:22;6.78;;;3.37;;
65755;SDS011;52489;47.502;18.940;2022-11-15T06:48:25;5.62;;;3.00;;
65755;SDS011;52489;47.502;18.940;2022-11-15T06:49:28;5.60;;;3.28;;
65755;SDS011;52489;47.502;18.940;2022-11-15T06:50:31;6.87;;;3.37;;
65755;SDS011;52489;47.502;18.940;2022-11-15T06:51:34;6.78;;;3.30;;
65755;SDS011;52489;47.502;18.940;2022-11-15T06:52:36;7.97;;;3.65;;
65755;SDS011;52489;47.502;18.940;2022-11-15T06:53:39;3.97;;;2.62;;
65755;SDS011;52489;47.502;18.940;2022-11-15T06:54:42;5.32;;;3.22;;
65755;SDS011;52489;47.502;18.940;2022-11-15T06:55:44;6.35;;;2.72;;
65755;SDS011;52489;47.502;18.940;2022-11-15T06:56:47;7.05;;;3.83;;
65755;SDS011;52489;47.502;18.940;2022-11-15T06:57:50;7.37;;;3.67;;
65755;SDS011;52489;47.502;18.940;2022-11-15T06:58:55;5.22;;;3.47;;
65755;SDS011;52489;47.502;18.940;2022-11-15T06:59:57;5.37;;;3.22;;